Center City, Minnesota
Current Conditions -  °F | °C
As of 10:55 AM on Saturday 25 Oct 2014 (Local Time) from KOEO Reporting Station
Clear Clear  
Wind Chill: 55°   Ceiling: Unl
Heat Index: 55°   Visibility: 10mi
Dew Point: 34°   Wind: 15mph
Humidity: 45%   Direction: 290°WNW
Pressure: 30.04"   Gusts: 20mph
Location:  45.39°N, 92.82°W
Report Text: KOEO 251555Z AUTO 29013G17KT 10SM CLR 13/01 A3004 RMK AO2 T01250009
Loading
Personal Weather Stations






























Interactive Weather Map
Tropical Storm Tracking
New forecast layout! Learn more

10-Day Weather Forecast

Advertisements
Track Severe Weather on mobile